Time;durP1;ratioP1;P1;durP2;ratioP2;P2;SDS_P1;SDS_P2;PMS_P1;PMS_P2;Temp;Humidity;BMP_temperature;BMP_pressure;BME280_temperature;BME280_humidity;BME280_pressure;Samples;Min_cycle;Max_cycle;Signal;HPM_P1;HPM_P2
2023/09/16 00:01:47;;;;;;;5.03;4.05;;;;;;;;;;5026197;28;20426;-65
2023/09/16 00:04:14;;;;;;;5.03;4.53;;;;;;;;;;5025001;28;20426;-65
2023/09/16 00:06:41;;;;;;;5.60;4.30;;;;;;;;;;5024885;28;20417;-65
2023/09/16 00:09:09;;;;;;;5.63;4.25;;;;;;;;;;5025872;28;20419;-65
2023/09/16 00:11:36;;;;;;;5.38;3.90;;;;;;;;;;5024048;28;20829;-64
2023/09/16 00:14:03;;;;;;;4.40;4.00;;;;;;;;;;5025531;28;20522;-64
2023/09/16 00:16:30;;;;;;;5.20;3.95;;;;;;;;;;5023089;28;20477;-65
2023/09/16 00:18:57;;;;;;;7.43;4.40;;;;;;;;;;5026767;28;20441;-63
2023/09/16 00:21:24;;;;;;;6.15;4.20;;;;;;;;;;5029615;28;20483;-65
2023/09/16 00:23:53;;;;;;;7.25;4.30;;;;;;;;;;5025471;28;20498;-63
2023/09/16 00:26:21;;;;;;;6.38;4.32;;;;;;;;;;5022419;28;20832;-64
2023/09/16 00:28:48;;;;;;;5.05;4.47;;;;;;;;;;5022726;28;20415;-64
2023/09/16 00:31:15;;;;;;;6.93;4.60;;;;;;;;;;5025608;28;20492;-64
2023/09/16 00:33:42;;;;;;;6.25;4.50;;;;;;;;;;5022823;28;20436;-64
2023/09/16 00:36:09;;;;;;;5.32;4.35;;;;;;;;;;5025938;28;20415;-65
2023/09/16 00:38:36;;;;;;;6.95;4.85;;;;;;;;;;5021913;28;20744;-64
2023/09/16 00:41:03;;;;;;;8.25;4.50;;;;;;;;;;5025352;28;20415;-65
2023/09/16 00:43:31;;;;;;;5.37;4.30;;;;;;;;;;5021537;28;20807;-65
2023/09/16 00:45:58;;;;;;;5.60;4.40;;;;;;;;;;5024959;28;20473;-64
2023/09/16 00:48:26;;;;;;;5.43;4.25;;;;;;;;;;5021648;28;20421;-65
2023/09/16 00:50:53;;;;;;;7.50;4.28;;;;;;;;;;5020987;28;20415;-64
2023/09/16 00:53:20;;;;;;;4.80;4.30;;;;;;;;;;5021539;28;20417;-64
2023/09/16 00:55:49;;;;;;;7.70;4.68;;;;;;;;;;5022013;28;20547;-65
2023/09/16 00:58:17;;;;;;;8.18;4.40;;;;;;;;;;5023198;28;20834;-65
2023/09/16 01:00:46;;;;;;;5.57;4.40;;;;;;;;;;5028876;28;20522;-65
2023/09/16 01:03:13;;;;;;;6.75;4.78;;;;;;;;;;5022153;28;20613;-64
2023/09/16 01:05:40;;;;;;;5.88;4.45;;;;;;;;;;5027278;28;20965;-65
2023/09/16 01:08:10;;;;;;;5.65;4.78;;;;;;;;;;5023954;28;20469;-64
2023/09/16 01:10:40;;;;;;;7.68;4.85;;;;;;;;;;5027275;28;20420;-65
2023/09/16 01:13:07;;;;;;;6.45;4.75;;;;;;;;;;5020089;28;20919;-64
2023/09/16 01:15:39;;;;;;;6.38;5.07;;;;;;;;;;5026637;28;20436;-65
2023/09/16 01:18:08;;;;;;;6.55;4.95;;;;;;;;;;5020460;28;20407;-64
2023/09/16 01:20:38;;;;;;;5.70;4.80;;;;;;;;;;5024889;28;20413;-64
2023/09/16 01:23:06;;;;;;;6.78;5.13;;;;;;;;;;5020293;28;20407;-65
2023/09/16 01:25:34;;;;;;;5.55;4.80;;;;;;;;;;5024985;28;20415;-64
2023/09/16 01:28:01;;;;;;;6.03;4.80;;;;;;;;;;5026585;28;20916;-64
2023/09/16 01:30:30;;;;;;;7.37;5.00;;;;;;;;;;5024835;28;20482;-65
2023/09/16 01:32:59;;;;;;;5.18;4.63;;;;;;;;;;5022923;28;20518;-65
2023/09/16 01:35:29;;;;;;;5.90;5.03;;;;;;;;;;5023823;28;20840;-65
2023/09/16 01:37:58;;;;;;;6.10;5.10;;;;;;;;;;5024728;28;20407;-65
2023/09/16 01:40:28;;;;;;;6.07;4.63;;;;;;;;;;5023791;28;20971;-65
2023/09/16 01:42:58;;;;;;;6.43;4.90;;;;;;;;;;5025022;28;20460;-63
2023/09/16 01:45:28;;;;;;;5.40;4.60;;;;;;;;;;5023106;28;20431;-65
2023/09/16 01:47:55;;;;;;;5.78;4.63;;;;;;;;;;5024444;28;20462;-65
2023/09/16 01:50:22;;;;;;;6.47;4.90;;;;;;;;;;5022931;28;20492;-64
2023/09/16 01:52:49;;;;;;;5.97;4.82;;;;;;;;;;5023860;28;20905;-65
2023/09/16 01:55:16;;;;;;;5.80;4.85;;;;;;;;;;5024251;28;20461;-64
2023/09/16 01:57:43;;;;;;;5.63;5.03;;;;;;;;;;5021668;28;20462;-65
2023/09/16 02:00:12;;;;;;;5.72;4.53;;;;;;;;;;5023523;28;20442;-64
2023/09/16 02:02:39;;;;;;;7.10;4.82;;;;;;;;;;5025044;28;20452;-65
2023/09/16 02:05:07;;;;;;;7.75;4.53;;;;;;;;;;5023593;28;20521;-65
2023/09/16 02:07:34;;;;;;;8.10;4.88;;;;;;;;;;5024529;28;20411;-64
2023/09/16 02:10:03;;;;;;;7.65;4.68;;;;;;;;;;5023908;28;20889;-65
2023/09/16 02:12:30;;;;;;;5.88;4.50;;;;;;;;;;5027130;28;20431;-63
2023/09/16 02:14:57;;;;;;;5.43;4.80;;;;;;;;;;5027095;28;20466;-65
2023/09/16 02:17:27;;;;;;;6.80;4.85;;;;;;;;;;5027505;28;20473;-65
2023/09/16 02:19:54;;;;;;;6.70;4.70;;;;;;;;;;5027308;28;20422;-64
2023/09/16 02:22:21;;;;;;;6.55;4.90;;;;;;;;;;5027399;28;20410;-65
2023/09/16 02:24:48;;;;;;;5.88;4.85;;;;;;;;;;5025975;28;20417;-64
2023/09/16 02:27:15;;;;;;;6.85;5.13;;;;;;;;;;5022816;28;20421;-65
2023/09/16 02:29:42;;;;;;;6.57;4.85;;;;;;;;;;5023180;28;20447;-63
2023/09/16 02:32:09;;;;;;;5.78;4.85;;;;;;;;;;5015288;28;20428;-64
2023/09/16 02:34:37;;;;;;;8.23;5.17;;;;;;;;;;5019364;28;20509;-65
2023/09/16 02:37:04;;;;;;;6.15;4.78;;;;;;;;;;5024819;28;20419;-64
2023/09/16 02:39:31;;;;;;;7.10;5.25;;;;;;;;;;5026073;28;20411;-64
2023/09/16 02:41:59;;;;;;;7.68;5.00;;;;;;;;;;5016034;28;20416;-64
2023/09/16 02:44:26;;;;;;;6.75;5.05;;;;;;;;;;5019249;28;20453;-64
2023/09/16 02:46:54;;;;;;;7.68;5.55;;;;;;;;;;5015551;28;20934;-65
2023/09/16 02:49:21;;;;;;;7.00;6.00;;;;;;;;;;5022389;28;20452;-64
2023/09/16 02:51:49;;;;;;;9.38;5.72;;;;;;;;;;5016897;28;20564;-64
2023/09/16 02:54:16;;;;;;;6.80;5.60;;;;;;;;;;5019798;28;20437;-65
2023/09/16 02:56:43;;;;;;;7.07;5.70;;;;;;;;;;5021147;28;20416;-64
2023/09/16 02:59:10;;;;;;;7.28;5.88;;;;;;;;;;5025550;28;20423;-65
2023/09/16 03:01:37;;;;;;;8.87;5.70;;;;;;;;;;5027395;28;20417;-64
2023/09/16 03:04:04;;;;;;;8.35;6.00;;;;;;;;;;5025003;28;20457;-65
2023/09/16 03:06:31;;;;;;;9.33;6.20;;;;;;;;;;5026576;28;20472;-64
2023/09/16 03:09:00;;;;;;;7.47;6.53;;;;;;;;;;5025182;28;20410;-65
2023/09/16 03:11:27;;;;;;;8.88;6.28;;;;;;;;;;5027558;28;20817;-64
2023/09/16 03:13:54;;;;;;;8.30;5.90;;;;;;;;;;5025114;28;20898;-65
2023/09/16 03:16:21;;;;;;;7.90;6.05;;;;;;;;;;5025378;28;20426;-65
2023/09/16 03:18:49;;;;;;;8.27;6.53;;;;;;;;;;5026958;28;20412;-65
2023/09/16 03:21:17;;;;;;;9.18;6.40;;;;;;;;;;5028421;28;20414;-64
2023/09/16 03:23:44;;;;;;;7.60;6.15;;;;;;;;;;5026362;28;20414;-64
2023/09/16 03:26:15;;;;;;;7.45;6.40;;;;;;;;;;5027567;28;20866;-64
2023/09/16 03:28:43;;;;;;;8.07;6.38;;;;;;;;;;5028451;28;20480;-64
2023/09/16 03:31:10;;;;;;;7.72;6.38;;;;;;;;;;5029704;28;20907;-64
2023/09/16 03:33:37;;;;;;;7.47;6.00;;;;;;;;;;5025655;28;20909;-65
2023/09/16 03:36:05;;;;;;;7.03;6.25;;;;;;;;;;5029756;28;20431;-64
2023/09/16 03:38:32;;;;;;;8.38;6.95;;;;;;;;;;5023160;28;20519;-64
2023/09/16 03:41:00;;;;;;;7.75;6.50;;;;;;;;;;5027423;28;20414;-63
2023/09/16 03:43:28;;;;;;;8.32;6.57;;;;;;;;;;5024857;28;20476;-65
2023/09/16 03:45:55;;;;;;;8.75;6.60;;;;;;;;;;5029468;28;20457;-63
2023/09/16 03:48:22;;;;;;;7.55;6.60;;;;;;;;;;5028480;28;20426;-64
2023/09/16 03:50:49;;;;;;;10.38;6.70;;;;;;;;;;5026086;28;20444;-63
2023/09/16 03:53:18;;;;;;;9.25;6.53;;;;;;;;;;5028431;28;20832;-64
2023/09/16 03:55:46;;;;;;;9.25;6.72;;;;;;;;;;5024248;28;20462;-64
2023/09/16 03:58:13;;;;;;;7.50;6.38;;;;;;;;;;5025170;28;20935;-64
2023/09/16 04:00:41;;;;;;;8.70;7.00;;;;;;;;;;5025686;28;20444;-63
2023/09/16 04:03:08;;;;;;;8.20;6.68;;;;;;;;;;5028639;28;20485;-65
2023/09/16 04:05:36;;;;;;;7.72;6.88;;;;;;;;;;5025155;28;20427;-64
2023/09/16 04:08:03;;;;;;;9.07;6.95;;;;;;;;;;5028669;28;20415;-64
2023/09/16 04:10:30;;;;;;;8.13;6.53;;;;;;;;;;5024969;28;20574;-65
2023/09/16 04:12:57;;;;;;;9.45;7.15;;;;;;;;;;5030799;28;20882;-64
2023/09/16 04:15:24;;;;;;;9.97;7.10;;;;;;;;;;5025288;28;20438;-64
2023/09/16 04:17:52;;;;;;;8.70;6.80;;;;;;;;;;5030596;28;20895;-64
2023/09/16 04:20:20;;;;;;;9.95;7.43;;;;;;;;;;5025318;28;20464;-64
2023/09/16 04:22:47;;;;;;;9.20;7.18;;;;;;;;;;5029244;28;20483;-64
2023/09/16 04:25:14;;;;;;;8.45;7.47;;;;;;;;;;5020793;28;20411;-65
2023/09/16 04:27:41;;;;;;;9.15;7.40;;;;;;;;;;5021811;28;20444;-64
2023/09/16 04:30:09;;;;;;;9.25;6.93;;;;;;;;;;5025175;28;20852;-64
2023/09/16 04:32:36;;;;;;;9.50;7.00;;;;;;;;;;5025770;28;20422;-64
2023/09/16 04:35:04;;;;;;;11.93;7.13;;;;;;;;;;5025486;28;20430;-64
2023/09/16 04:37:31;;;;;;;8.75;6.97;;;;;;;;;;5029523;28;20419;-65
2023/09/16 04:39:58;;;;;;;9.57;7.50;;;;;;;;;;5026433;28;20418;-63
2023/09/16 04:42:30;;;;;;;8.93;7.65;;;;;;;;;;5023634;28;20415;-65
2023/09/16 04:44:58;;;;;;;9.73;7.78;;;;;;;;;;5027908;28;20459;-64
2023/09/16 04:47:25;;;;;;;8.52;7.30;;;;;;;;;;5025654;28;20810;-64
2023/09/16 04:49:52;;;;;;;9.18;7.38;;;;;;;;;;5024956;28;20484;-64
2023/09/16 04:52:20;;;;;;;8.65;7.63;;;;;;;;;;5028837;28;20419;-64
2023/09/16 04:54:47;;;;;;;11.43;8.13;;;;;;;;;;5023401;28;20448;-64
2023/09/16 04:57:14;;;;;;;10.63;8.07;;;;;;;;;;5025097;28;20419;-64
2023/09/16 04:59:44;;;;;;;9.98;8.10;;;;;;;;;;5026004;28;20445;-64
2023/09/16 05:02:11;;;;;;;11.68;8.13;;;;;;;;;;5028607;28;20491;-63
2023/09/16 05:04:38;;;;;;;9.90;8.37;;;;;;;;;;5019629;28;20464;-63
2023/09/16 05:07:06;;;;;;;10.50;8.38;;;;;;;;;;5025717;28;20419;-63
2023/09/16 05:09:34;;;;;;;10.05;7.82;;;;;;;;;;5022242;28;20425;-63
2023/09/16 05:12:02;;;;;;;10.45;8.07;;;;;;;;;;5022296;28;20835;-63
2023/09/16 05:14:29;;;;;;;10.60;8.27;;;;;;;;;;5022368;28;20468;-63
2023/09/16 05:16:56;;;;;;;11.85;8.38;;;;;;;;;;5024445;28;20500;-64
2023/09/16 05:19:23;;;;;;;12.93;8.95;;;;;;;;;;5022927;28;20426;-63
2023/09/16 05:21:50;;;;;;;10.25;8.82;;;;;;;;;;5023550;28;20420;-63
2023/09/16 05:24:17;;;;;;;13.80;9.02;;;;;;;;;;5024764;28;20468;-64
2023/09/16 05:26:45;;;;;;;11.48;8.10;;;;;;;;;;5019219;28;20440;-63
2023/09/16 05:29:12;;;;;;;11.25;9.32;;;;;;;;;;5025786;28;20422;-65
2023/09/16 05:31:39;;;;;;;10.93;8.48;;;;;;;;;;5027090;28;20935;-65
2023/09/16 05:34:06;;;;;;;10.77;8.82;;;;;;;;;;5032375;28;20414;-64
2023/09/16 05:36:34;;;;;;;11.85;9.43;;;;;;;;;;5026547;28;20445;-63
2023/09/16 05:39:02;;;;;;;12.07;9.10;;;;;;;;;;5025239;28;20467;-62
2023/09/16 05:41:29;;;;;;;13.60;9.30;;;;;;;;;;5022859;28;20424;-63
2023/09/16 05:43:58;;;;;;;10.98;8.82;;;;;;;;;;5023517;28;20466;-63
2023/09/16 05:46:25;;;;;;;11.90;8.40;;;;;;;;;;5025587;28;20498;-62
2023/09/16 05:48:56;;;;;;;11.65;9.32;;;;;;;;;;5026822;28;20930;-63
2023/09/16 05:51:23;;;;;;;11.10;9.23;;;;;;;;;;5022943;28;20811;-62
2023/09/16 05:53:50;;;;;;;14.05;9.35;;;;;;;;;;5029937;28;20412;-64
2023/09/16 05:56:17;;;;;;;10.88;8.85;;;;;;;;;;5021673;28;20861;-63
2023/09/16 05:58:44;;;;;;;13.00;9.15;;;;;;;;;;5025088;28;20783;-64
2023/09/16 06:01:12;;;;;;;13.82;9.20;;;;;;;;;;5027240;28;20415;-64
2023/09/16 06:03:39;;;;;;;11.55;9.30;;;;;;;;;;5027165;28;20899;-63
2023/09/16 06:06:06;;;;;;;10.87;9.57;;;;;;;;;;5027752;28;20472;-65
2023/09/16 06:08:33;;;;;;;13.60;10.07;;;;;;;;;;5027822;28;20461;-63
2023/09/16 06:11:00;;;;;;;10.83;9.00;;;;;;;;;;5026609;28;20440;-65
2023/09/16 06:13:27;;;;;;;11.82;10.15;;;;;;;;;;5027015;28;20488;-64
2023/09/16 06:15:54;;;;;;;14.13;10.27;;;;;;;;;;5025764;28;20482;-65
2023/09/16 06:18:23;;;;;;;12.52;9.82;;;;;;;;;;5030509;28;20559;-62
2023/09/16 06:20:50;;;;;;;13.98;9.52;;;;;;;;;;5024636;28;20834;-63
2023/09/16 06:23:17;;;;;;;11.73;9.20;;;;;;;;;;5030182;28;20461;-62
2023/09/16 06:25:44;;;;;;;10.80;9.35;;;;;;;;;;5023274;28;20405;-63
2023/09/16 06:28:11;;;;;;;10.40;8.60;;;;;;;;;;5027419;28;20415;-63
2023/09/16 06:30:38;;;;;;;13.93;9.13;;;;;;;;;;5023026;28;20474;-63
2023/09/16 06:33:06;;;;;;;11.32;8.75;;;;;;;;;;5029303;28;20813;-63
2023/09/16 06:35:34;;;;;;;11.90;8.40;;;;;;;;;;5022472;28;20432;-65
2023/09/16 06:38:01;;;;;;;11.90;8.68;;;;;;;;;;5030775;28;20419;-64
2023/09/16 06:40:28;;;;;;;11.43;8.70;;;;;;;;;;5022903;28;20416;-63
2023/09/16 06:42:55;;;;;;;8.98;8.07;;;;;;;;;;5028147;28;20491;-65
2023/09/16 06:45:22;;;;;;;11.02;8.45;;;;;;;;;;5025698;28;20418;-63
2023/09/16 06:47:49;;;;;;;11.57;8.40;;;;;;;;;;5027590;28;20416;-64
2023/09/16 06:50:16;;;;;;;9.15;8.18;;;;;;;;;;5025449;28;20805;-63
2023/09/16 06:52:44;;;;;;;10.52;7.75;;;;;;;;;;5026582;28;20421;-63
2023/09/16 06:55:11;;;;;;;13.73;8.43;;;;;;;;;;5017861;28;20496;-63
2023/09/16 06:57:38;;;;;;;9.27;7.22;;;;;;;;;;5013618;28;21143;-66
2023/09/16 07:00:06;;;;;;;13.80;8.15;;;;;;;;;;5020655;28;20467;-63
2023/09/16 07:02:33;;;;;;;11.32;7.72;;;;;;;;;;5023710;28;20411;-63
2023/09/16 07:05:00;;;;;;;10.80;7.50;;;;;;;;;;5017932;28;20417;-62
2023/09/16 07:07:27;;;;;;;9.00;7.15;;;;;;;;;;5018762;28;20885;-63
2023/09/16 07:09:56;;;;;;;9.02;7.07;;;;;;;;;;5025865;28;20421;-63
2023/09/16 07:12:24;;;;;;;10.43;6.43;;;;;;;;;;5026734;28;20423;-63
2023/09/16 07:14:51;;;;;;;8.00;6.65;;;;;;;;;;5025652;28;20426;-63
2023/09/16 07:17:18;;;;;;;9.60;6.53;;;;;;;;;;5027454;28;20454;-63
2023/09/16 07:19:45;;;;;;;8.30;6.70;;;;;;;;;;5024244;28;20650;-64
2023/09/16 07:22:12;;;;;;;8.27;6.13;;;;;;;;;;5029901;28;20468;-63
2023/09/16 07:24:39;;;;;;;8.57;6.10;;;;;;;;;;5025539;28;20467;-63
2023/09/16 07:27:08;;;;;;;7.20;6.00;;;;;;;;;;5021991;28;20422;-64
2023/09/16 07:29:35;;;;;;;7.68;5.70;;;;;;;;;;5023422;28;20481;-64
2023/09/16 07:32:02;;;;;;;8.83;6.23;;;;;;;;;;5025575;28;20917;-63
2023/09/16 07:34:29;;;;;;;7.13;5.60;;;;;;;;;;5027066;28;20445;-64
2023/09/16 07:36:58;;;;;;;10.07;5.75;;;;;;;;;;5024269;28;20428;-65
2023/09/16 07:39:25;;;;;;;6.97;5.45;;;;;;;;;;5026522;28;20890;-64
2023/09/16 07:41:52;;;;;;;10.83;5.67;;;;;;;;;;5025612;28;20533;-64
2023/09/16 07:44:20;;;;;;;7.57;5.15;;;;;;;;;;5029080;28;20427;-66
2023/09/16 07:46:48;;;;;;;7.73;5.47;;;;;;;;;;5023905;28;21007;-66
2023/09/16 07:49:15;;;;;;;6.88;5.07;;;;;;;;;;5029519;28;20889;-65
2023/09/16 07:51:45;;;;;;;6.18;5.03;;;;;;;;;;5022678;28;20435;-64
2023/09/16 07:54:12;;;;;;;7.07;5.10;;;;;;;;;;5025045;28;20471;-65
2023/09/16 07:56:39;;;;;;;7.00;5.03;;;;;;;;;;5020570;28;20835;-66
2023/09/16 07:59:06;;;;;;;9.95;8.00;;;;;;;;;;5014245;28;20428;-63
2023/09/16 08:01:35;;;;;;;5.97;4.75;;;;;;;;;;5009397;28;20888;-63
2023/09/16 08:04:02;;;;;;;9.88;5.28;;;;;;;;;;5018150;28;20423;-63
2023/09/16 08:06:29;;;;;;;6.67;4.77;;;;;;;;;;5018898;28;20413;-65
2023/09/16 08:08:56;;;;;;;7.28;4.70;;;;;;;;;;5013959;28;20407;-63
2023/09/16 08:11:23;;;;;;;6.38;4.65;;;;;;;;;;5020570;28;20469;-63
2023/09/16 08:13:51;;;;;;;6.65;4.57;;;;;;;;;;5013824;28;20465;-63
2023/09/16 08:16:18;;;;;;;5.78;4.80;;;;;;;;;;5019708;28;20432;-63
2023/09/16 08:18:46;;;;;;;7.15;5.43;;;;;;;;;;5014521;28;20475;-63
2023/09/16 08:21:13;;;;;;;17.50;14.30;;;;;;;;;;5018687;28;20482;-62
2023/09/16 08:23:41;;;;;;;6.35;4.28;;;;;;;;;;5016956;28;20420;-61
2023/09/16 08:26:08;;;;;;;6.80;4.38;;;;;;;;;;5017896;28;20459;-61
2023/09/16 08:28:36;;;;;;;5.28;4.30;;;;;;;;;;5024078;28;20418;-63
2023/09/16 08:31:03;;;;;;;5.80;4.43;;;;;;;;;;5017263;28;20508;-65
2023/09/16 08:33:30;;;;;;;5.05;4.50;;;;;;;;;;5014703;28;20446;-65
2023/09/16 08:35:59;;;;;;;6.10;4.10;;;;;;;;;;5014737;28;20436;-63
2023/09/16 08:38:26;;;;;;;7.57;4.15;;;;;;;;;;5013526;28;20470;-63
2023/09/16 08:40:57;;;;;;;5.88;4.00;;;;;;;;;;5016089;28;20481;-63
2023/09/16 08:43:29;;;;;;;5.63;4.32;;;;;;;;;;5014481;28;20947;-63
2023/09/16 08:46:00;;;;;;;6.22;4.28;;;;;;;;;;5015854;28;20418;-64
2023/09/16 08:48:28;;;;;;;6.90;4.40;;;;;;;;;;5015410;28;20472;-63
2023/09/16 08:50:55;;;;;;;5.68;3.80;;;;;;;;;;5016139;28;20457;-65
2023/09/16 08:53:26;;;;;;;7.50;4.00;;;;;;;;;;5014366;28;20428;-65
2023/09/16 08:55:55;;;;;;;6.47;4.30;;;;;;;;;;5023461;28;20480;-65
2023/09/16 08:58:22;;;;;;;8.60;4.75;;;;;;;;;;5022076;28;20484;-65
2023/09/16 09:00:49;;;;;;;4.90;4.40;;;;;;;;;;5022845;28;20415;-65
2023/09/16 09:03:16;;;;;;;5.43;4.70;;;;;;;;;;5025484;28;20411;-65
2023/09/16 09:05:45;;;;;;;5.03;4.18;;;;;;;;;;5019294;28;20442;-67
2023/09/16 09:08:12;;;;;;;5.90;4.50;;;;;;;;;;5025251;28;20441;-66
2023/09/16 09:10:41;;;;;;;5.55;4.22;;;;;;;;;;5025453;28;20450;-63
2023/09/16 09:13:12;;;;;;;6.45;4.60;;;;;;;;;;5021242;28;20880;-65
2023/09/16 09:15:39;;;;;;;5.57;4.00;;;;;;;;;;5024481;28;20956;-64
2023/09/16 09:18:07;;;;;;;5.70;4.30;;;;;;;;;;5024045;28;20423;-66
2023/09/16 09:20:34;;;;;;;6.15;4.30;;;;;;;;;;5025236;28;20894;-64
2023/09/16 09:23:02;;;;;;;5.60;4.47;;;;;;;;;;5027104;28;20471;-64
2023/09/16 09:25:31;;;;;;;4.57;4.03;;;;;;;;;;5023874;28;20415;-64
2023/09/16 09:27:59;;;;;;;6.70;4.70;;;;;;;;;;5023026;28;20853;-64
2023/09/16 09:30:27;;;;;;;5.38;4.22;;;;;;;;;;5029620;28;20426;-65
2023/09/16 09:32:55;;;;;;;4.43;4.03;;;;;;;;;;5027612;28;20457;-63
2023/09/16 09:35:23;;;;;;;6.05;4.63;;;;;;;;;;5029718;28;20942;-63
2023/09/16 09:37:50;;;;;;;4.90;4.40;;;;;;;;;;5025567;28;20519;-64
2023/09/16 09:40:17;;;;;;;7.13;4.38;;;;;;;;;;5032735;28;20445;-64
2023/09/16 09:42:45;;;;;;;5.38;4.53;;;;;;;;;;5030809;28;20426;-66
2023/09/16 09:45:14;;;;;;;6.85;4.38;;;;;;;;;;5031698;28;20419;-67
2023/09/16 09:47:42;;;;;;;6.82;4.30;;;;;;;;;;5023758;28;20818;-66
2023/09/16 09:50:12;;;;;;;5.35;4.20;;;;;;;;;;5024041;28;20465;-66
2023/09/16 09:52:39;;;;;;;5.78;4.32;;;;;;;;;;5027357;28;20472;-66
2023/09/16 09:55:06;;;;;;;5.10;4.28;;;;;;;;;;5026686;28;20463;-66
2023/09/16 09:57:34;;;;;;;5.40;4.63;;;;;;;;;;5022629;28;20487;-64
2023/09/16 10:00:01;;;;;;;5.15;4.55;;;;;;;;;;5028660;28;20478;-63
2023/09/16 10:02:30;;;;;;;6.63;4.50;;;;;;;;;;5026337;28;20415;-63
2023/09/16 10:05:01;;;;;;;6.18;4.63;;;;;;;;;;5028266;28;20424;-64
2023/09/16 10:07:29;;;;;;;5.27;4.67;;;;;;;;;;5025877;28;20486;-64
2023/09/16 10:09:56;;;;;;;5.40;4.90;;;;;;;;;;5023450;28;20418;-63
2023/09/16 10:12:23;;;;;;;5.65;4.68;;;;;;;;;;5019629;28;20510;-65
2023/09/16 10:14:51;;;;;;;6.85;5.00;;;;;;;;;;5013586;28;20427;-63
2023/09/16 10:17:18;;;;;;;7.03;4.93;;;;;;;;;;5015846;28;20432;-64
2023/09/16 10:19:46;;;;;;;5.70;4.60;;;;;;;;;;5022635;28;20419;-66
2023/09/16 10:22:13;;;;;;;6.65;5.03;;;;;;;;;;5020118;28;20783;-66
2023/09/16 10:24:41;;;;;;;6.13;4.97;;;;;;;;;;5018307;28;20413;-64
2023/09/16 10:27:10;;;;;;;6.80;4.72;;;;;;;;;;5020605;28;20489;-66
2023/09/16 10:29:38;;;;;;;4.82;4.40;;;;;;;;;;5026460;28;20784;-64
2023/09/16 10:32:06;;;;;;;5.90;5.10;;;;;;;;;;5027393;28;20414;-65
2023/09/16 10:34:33;;;;;;;6.43;5.20;;;;;;;;;;5022725;28;20450;-65
2023/09/16 10:37:02;;;;;;;6.07;4.85;;;;;;;;;;5027230;28;20435;-62
2023/09/16 10:39:29;;;;;;;5.72;4.90;;;;;;;;;;5029032;28;20415;-66
2023/09/16 10:41:57;;;;;;;6.00;5.07;;;;;;;;;;5025808;28;20423;-64
2023/09/16 10:44:24;;;;;;;7.50;5.30;;;;;;;;;;5021579;28;20937;-64
2023/09/16 10:46:52;;;;;;;5.95;5.35;;;;;;;;;;5021986;28;20411;-63
2023/09/16 10:49:19;;;;;;;8.07;5.40;;;;;;;;;;5018141;28;20838;-65
2023/09/16 10:51:46;;;;;;;6.53;5.65;;;;;;;;;;5012510;28;20532;-63
2023/09/16 10:54:20;;;;;;;6.07;5.45;;;;;;;;;;5013676;28;20782;-64
2023/09/16 10:56:48;;;;;;;6.47;5.40;;;;;;;;;;5017143;28;20512;-67
2023/09/16 10:59:17;;;;;;;7.97;6.00;;;;;;;;;;5021321;28;20411;-64
2023/09/16 11:01:48;;;;;;;10.57;6.72;;;;;;;;;;5012547;28;20427;-63
2023/09/16 11:04:16;;;;;;;7.87;5.77;;;;;;;;;;5020683;28;20411;-65
2023/09/16 11:06:47;;;;;;;7.47;6.50;;;;;;;;;;5015990;28;20473;-65
2023/09/16 11:09:16;;;;;;;7.20;6.47;;;;;;;;;;5021247;28;20568;-65
2023/09/16 11:11:43;;;;;;;6.70;5.82;;;;;;;;;;5019820;28;20496;-66
2023/09/16 11:14:11;;;;;;;7.72;5.90;;;;;;;;;;5022970;28;20960;-65
2023/09/16 11:16:44;;;;;;;8.27;6.20;;;;;;;;;;5025343;28;20480;-66
2023/09/16 11:19:15;;;;;;;7.73;6.07;;;;;;;;;;5023432;28;20956;-67
2023/09/16 11:21:43;;;;;;;7.65;5.85;;;;;;;;;;5031055;28;20437;-67
2023/09/16 11:24:10;;;;;;;6.00;5.43;;;;;;;;;;5025770;28;20403;-67
2023/09/16 11:26:39;;;;;;;7.68;5.57;;;;;;;;;;5022595;28;20462;-66
2023/09/16 11:29:16;;;;;;;8.82;5.80;;;;;;;;;;5025325;28;20453;-65
2023/09/16 11:31:43;;;;;;;7.72;6.15;;;;;;;;;;5020808;28;20415;-65
2023/09/16 11:34:12;;;;;;;7.72;6.07;;;;;;;;;;5024337;28;20411;-66
2023/09/16 11:36:43;;;;;;;6.88;5.95;;;;;;;;;;5017940;28;20437;-63
2023/09/16 11:39:15;;;;;;;8.07;6.80;;;;;;;;;;5020756;28;20934;-63
2023/09/16 11:41:44;;;;;;;7.07;6.37;;;;;;;;;;5019247;28;20819;-63
2023/09/16 11:44:11;;;;;;;8.10;6.03;;;;;;;;;;5011668;28;20424;-63
2023/09/16 11:46:39;;;;;;;6.68;5.50;;;;;;;;;;5011971;28;20471;-63
2023/09/16 11:49:07;;;;;;;6.90;6.20;;;;;;;;;;5022454;28;20510;-63
2023/09/16 11:51:34;;;;;;;7.53;6.20;;;;;;;;;;5030148;28;20737;-64
2023/09/16 11:54:02;;;;;;;6.78;6.10;;;;;;;;;;5013188;28;20419;-64
2023/09/16 11:56:29;;;;;;;8.32;6.40;;;;;;;;;;5014608;28;20483;-64
2023/09/16 11:58:58;;;;;;;7.18;6.40;;;;;;;;;;5022864;28;20484;-64
2023/09/16 12:01:28;;;;;;;7.03;6.33;;;;;;;;;;5029007;28;20473;-63
2023/09/16 12:03:56;;;;;;;7.07;5.88;;;;;;;;;;5031274;28;20415;-62
2023/09/16 12:06:25;;;;;;;6.82;5.75;;;;;;;;;;5031268;28;20411;-63
2023/09/16 12:08:53;;;;;;;7.03;5.93;;;;;;;;;;5027220;28;20410;-63
2023/09/16 12:11:20;;;;;;;8.07;5.88;;;;;;;;;;5031751;28;20469;-63
2023/09/16 12:13:47;;;;;;;6.60;5.90;;;;;;;;;;5026035;28;20411;-64
2023/09/16 12:16:15;;;;;;;6.25;5.53;;;;;;;;;;5031452;28;20415;-64
2023/09/16 12:18:43;;;;;;;7.05;6.35;;;;;;;;;;5023276;28;20430;-65
2023/09/16 12:21:10;;;;;;;9.15;5.53;;;;;;;;;;5023179;28;20426;-64
2023/09/16 12:23:37;;;;;;;7.95;5.78;;;;;;;;;;5027882;28;20928;-64
2023/09/16 12:26:04;;;;;;;5.63;5.13;;;;;;;;;;5019912;28;20447;-64
2023/09/16 12:28:32;;;;;;;5.90;5.30;;;;;;;;;;5011576;28;20504;-63
2023/09/16 12:30:59;;;;;;;6.32;5.47;;;;;;;;;;5030880;28;20426;-63
2023/09/16 12:33:39;;;;;;;6.05;5.43;;;;;;;;;;5027488;28;20889;-63
2023/09/16 12:36:07;;;;;;;6.22;5.10;;;;;;;;;;5030900;28;20477;-64
2023/09/16 12:38:34;;;;;;;7.35;5.38;;;;;;;;;;5030511;28;20427;-64
2023/09/16 12:41:02;;;;;;;8.32;6.78;;;;;;;;;;5023278;28;20414;-64
2023/09/16 12:43:29;;;;;;;7.82;6.35;;;;;;;;;;5011294;28;20416;-64
2023/09/16 12:45:56;;;;;;;6.90;5.28;;;;;;;;;;5010895;28;20424;-64
2023/09/16 12:48:23;;;;;;;6.20;5.22;;;;;;;;;;5018390;28;20408;-64
2023/09/16 12:50:53;;;;;;;5.32;4.75;;;;;;;;;;5012811;28;20412;-64
2023/09/16 12:53:20;;;;;;;5.63;5.03;;;;;;;;;;5013870;28;20423;-65
2023/09/16 12:55:48;;;;;;;5.53;5.03;;;;;;;;;;5021150;28;20473;-66
2023/09/16 12:58:16;;;;;;;5.78;5.22;;;;;;;;;;5015780;28;20427;-66
2023/09/16 13:00:43;;;;;;;6.20;5.22;;;;;;;;;;5021545;28;20795;-66
2023/09/16 13:03:10;;;;;;;6.70;5.25;;;;;;;;;;5015627;28;20915;-66
2023/09/16 13:05:38;;;;;;;5.95;5.30;;;;;;;;;;5017863;28;20427;-65
2023/09/16 13:08:08;;;;;;;5.77;5.10;;;;;;;;;;5024231;28;20416;-65
2023/09/16 13:10:35;;;;;;;6.32;5.53;;;;;;;;;;5019856;28;21162;-65
2023/09/16 13:13:02;;;;;;;6.68;5.40;;;;;;;;;;5022750;28;20828;-66
2023/09/16 13:15:29;;;;;;;6.65;5.60;;;;;;;;;;5021546;28;20890;-65
2023/09/16 13:17:59;;;;;;;7.32;5.32;;;;;;;;;;5015308;28;20491;-65
2023/09/16 13:20:27;;;;;;;5.97;5.38;;;;;;;;;;5019447;28;20500;-65
2023/09/16 13:22:57;;;;;;;5.90;5.38;;;;;;;;;;5015882;28;20416;-65
2023/09/16 13:25:37;;;;;;;5.60;5.10;;;;;;;;;;5017697;28;20573;-65
2023/09/16 13:28:09;;;;;;;5.93;5.32;;;;;;;;;;5016018;28;20918;-66
2023/09/16 13:30:36;;;;;;;5.93;5.22;;;;;;;;;;5023426;28;20465;-66
2023/09/16 13:33:05;;;;;;;6.37;5.40;;;;;;;;;;5027051;28;20418;-67
2023/09/16 13:35:32;;;;;;;6.15;4.90;;;;;;;;;;5021185;28;20415;-65
2023/09/16 13:37:59;;;;;;;7.50;5.32;;;;;;;;;;5018188;28;20428;-68
2023/09/16 13:40:26;;;;;;;6.03;5.43;;;;;;;;;;5023171;28;20419;-67
2023/09/16 13:42:54;;;;;;;6.32;4.75;;;;;;;;;;5021704;28;20417;-66
2023/09/16 13:45:21;;;;;;;5.78;5.20;;;;;;;;;;5028214;28;20419;-64
2023/09/16 13:48:03;;;;;;;6.15;5.18;;;;;;;;;;5021088;28;20416;-67
2023/09/16 13:50:30;;;;;;;5.82;5.00;;;;;;;;;;5025607;28;20445;-66
2023/09/16 13:52:57;;;;;;;5.63;5.05;;;;;;;;;;5021702;28;20828;-66
2023/09/16 13:55:24;;;;;;;5.75;5.00;;;;;;;;;;5017351;28;20428;-67
2023/09/16 13:57:51;;;;;;;5.78;5.18;;;;;;;;;;5018091;28;20429;-65
2023/09/16 14:00:20;;;;;;;6.07;5.10;;;;;;;;;;5027214;28;20415;-63
2023/09/16 14:02:48;;;;;;;5.47;4.97;;;;;;;;;;5019420;28;21177;-66
2023/09/16 14:05:15;;;;;;;5.95;5.40;;;;;;;;;;5025452;28;20889;-64
2023/09/16 14:07:43;;;;;;;5.82;5.32;;;;;;;;;;5012763;28;21391;-64
2023/09/16 14:10:10;;;;;;;6.15;5.30;;;;;;;;;;5014149;28;20424;-63
2023/09/16 14:12:37;;;;;;;6.65;5.10;;;;;;;;;;5023045;28;20402;-65
2023/09/16 14:15:04;;;;;;;5.18;4.60;;;;;;;;;;5012329;28;20424;-64
2023/09/16 14:17:32;;;;;;;5.63;5.07;;;;;;;;;;5021818;28;20468;-66
2023/09/16 14:19:59;;;;;;;6.90;5.05;;;;;;;;;;5022095;28;20921;-65
2023/09/16 14:22:29;;;;;;;6.30;4.97;;;;;;;;;;5021800;28;20548;-65
2023/09/16 14:24:56;;;;;;;5.55;5.05;;;;;;;;;;5023518;28;20489;-64
2023/09/16 14:27:24;;;;;;;6.57;5.37;;;;;;;;;;5021544;28;20903;-65
2023/09/16 14:29:51;;;;;;;6.65;5.35;;;;;;;;;;5022379;28;20442;-66
2023/09/16 14:32:18;;;;;;;6.68;5.10;;;;;;;;;;5023539;28;20497;-66
2023/09/16 14:34:47;;;;;;;5.47;4.95;;;;;;;;;;5029277;28;20411;-65
2023/09/16 14:37:14;;;;;;;5.88;4.97;;;;;;;;;;5024168;28;20426;-65
2023/09/16 14:39:41;;;;;;;7.07;4.80;;;;;;;;;;5021506;28;20477;-65
2023/09/16 14:42:08;;;;;;;7.13;5.10;;;;;;;;;;5023627;28;20507;-63
2023/09/16 14:44:36;;;;;;;5.50;5.00;;;;;;;;;;5028087;28;20415;-63